Time;durP1;ratioP1;P1;durP2;ratioP2;P2;SDS_P1;SDS_P2;PMS_P1;PMS_P2;Temp;Humidity;BMP_temperature;BMP_pressure;BME280_temperature;BME280_humidity;BME280_pressure;Samples;Min_cycle;Max_cycle;Signal;HPM_P1;HPM_P2
2023/05/17 00:02:16;;;;;;;2.4;1.7;;;;;;;7.83;94.95508;938.6606;;;;
2023/05/17 00:04:45;;;;;;;3.3;2.1;;;;;;;7.78;95.12695;938.5865;;;;
2023/05/17 00:07:10;;;;;;;2.3;2;;;;;;;7.83;95.93262;938.6354;;;;
2023/05/17 00:09:40;;;;;;;2.4;2.1;;;;;;;7.92;96.29297;938.7403;;;;
2023/05/17 00:12:05;;;;;;;2.7;2.5;;;;;;;7.97;96.77832;938.8053;;;;
2023/05/17 00:14:34;;;;;;;2.3;2.1;;;;;;;8.06;97.0957;938.817;;;;
2023/05/17 00:19:26;;;;;;;2;1.8;;;;;;;8.03;96.80566;938.803;;;;
2023/05/17 00:21:51;;;;;;;2.2;1.6;;;;;;;7.97;95.29297;938.8292;;;;
2023/05/17 00:24:16;;;;;;;1.9;1.6;;;;;;;8.04;95.28711;938.8912;;;;
2023/05/17 00:26:42;;;;;;;1.5;1.4;;;;;;;8.07;95.67871;938.8767;;;;
2023/05/17 00:29:07;;;;;;;1.6;1.5;;;;;;;8.12;95.92969;938.8935;;;;
2023/05/17 00:31:32;;;;;;;2;1.8;;;;;;;8.22;95.46289;938.9228;;;;
2023/05/17 00:33:58;;;;;;;1.7;1.6;;;;;;;8.24;94.77441;938.9224;;;;
2023/05/17 00:36:26;;;;;;;1.7;1.4;;;;;;;8.27;94.54199;938.8848;;;;
2023/05/17 00:38:51;;;;;;;1.7;1.6;;;;;;;8.28;94.27344;938.9342;;;;
2023/05/17 00:41:18;;;;;;;3.2;1.6;;;;;;;8.36;94.17773;938.9408;;;;
2023/05/17 00:43:43;;;;;;;2.6;1.7;;;;;;;8.24;93.89941;939.0103;;;;
2023/05/17 00:46:09;;;;;;;2.7;1.8;;;;;;;8.26;94.3584;938.9551;;;;
2023/05/17 00:48:34;;;;;;;2;1.6;;;;;;;8.33;94.96289;938.9476;;;;
2023/05/17 00:51:00;;;;;;;2.9;1.9;;;;;;;8.34;94.9668;939.0007;;;;
2023/05/17 00:53:25;;;;;;;1.8;1.5;;;;;;;8.37;94.31348;939.0345;;;;
2023/05/17 00:55:54;;;;;;;1.5;1.4;;;;;;;8.3;95.03613;938.9836;;;;
2023/05/17 00:58:18;;;;;;;1.7;1.5;;;;;;;8.23;93.01367;938.9904;;;;
2023/05/17 01:00:44;;;;;;;2;1.8;;;;;;;8.15;93.47168;938.9933;;;;
2023/05/17 01:03:09;;;;;;;1.6;1.5;;;;;;;8.12;93.36328;938.9665;;;;
2023/05/17 01:05:35;;;;;;;2.3;1.5;;;;;;;8.1;92.65527;938.9764;;;;
2023/05/17 01:08:00;;;;;;;1.8;1.6;;;;;;;8.07;93.41992;938.9949;;;;
2023/05/17 01:10:28;;;;;;;2;1.6;;;;;;;8.04;93.56152;939.0641;;;;
2023/05/17 01:12:53;;;;;;;1.6;1.5;;;;;;;8.08;94.18262;939.0974;;;;
2023/05/17 01:15:18;;;;;;;1.4;1.3;;;;;;;8.08;94.37695;939.0823;;;;
2023/05/17 01:17:43;;;;;;;1.8;1.6;;;;;;;8.08;94.74023;939.1252;;;;
2023/05/17 01:20:09;;;;;;;2.9;2;;;;;;;8.06;95.4043;939.1018;;;;
2023/05/17 01:22:38;;;;;;;3.3;1.6;;;;;;;8.05;94.77832;939.1086;;;;
2023/05/17 01:25:05;;;;;;;1.7;1.6;;;;;;;8.04;94.83301;939.0602;;;;
2023/05/17 01:27:31;;;;;;;1.5;1.4;;;;;;;8.12;94.12207;939.0933;;;;
2023/05/17 01:29:56;;;;;;;1.6;1.5;;;;;;;8.15;93.78906;939.0765;;;;
2023/05/17 01:32:21;;;;;;;3;1.7;;;;;;;8.12;94.03125;939.144;;;;
2023/05/17 01:38:20;;;;;;;2.4;1.8;;;;;;;7.91;96.15332;939.1578;;;;
2023/05/17 01:40:45;;;;;;;2.5;1.8;;;;;;;7.92;96.94922;939.2405;;;;
2023/05/17 01:43:15;;;;;;;2.2;1.7;;;;;;;7.93;97.02148;939.2724;;;;
2023/05/17 01:45:40;;;;;;;1.7;1.6;;;;;;;7.97;96.45117;939.3035;;;;
2023/05/17 01:48:05;;;;;;;1.9;1.7;;;;;;;7.91;95.97363;939.3054;;;;
2023/05/17 01:50:31;;;;;;;2.1;1.9;;;;;;;7.87;95.37305;939.3123;;;;
2023/05/17 01:52:56;;;;;;;2.1;1.9;;;;;;;7.97;94.96387;939.2748;;;;
2023/05/17 01:55:23;;;;;;;2.2;1.8;;;;;;;7.92;93.85156;939.3483;;;;
2023/05/17 01:57:48;;;;;;;2.3;1.8;;;;;;;7.89;93.87988;939.3524;;;;
2023/05/17 02:00:14;;;;;;;2;1.8;;;;;;;7.77;93.1748;939.3837;;;;
2023/05/17 02:02:43;;;;;;;1.9;1.7;;;;;;;7.68;93.95898;939.3745;;;;
2023/05/17 02:05:17;;;;;;;2.3;1.7;;;;;;;7.67;94.44238;939.2586;;;;
2023/05/17 02:08:10;;;;;;;2.7;2;;;;;;;7.67;94.52441;939.3403;;;;
2023/05/17 02:10:35;;;;;;;3.4;2.3;;;;;;;7.51;93.35449;939.3237;;;;
2023/05/17 02:13:00;;;;;;;2;1.7;;;;;;;7.42;94.25293;939.3328;;;;
2023/05/17 02:15:25;;;;;;;1.8;1.7;;;;;;;7.47;94.14063;939.3397;;;;
2023/05/17 02:17:53;;;;;;;2;1.8;;;;;;;7.48;95.37793;939.3692;;;;
2023/05/17 02:20:18;;;;;;;2.3;2.1;;;;;;;7.41;94.32129;939.3723;;;;
2023/05/17 02:22:44;;;;;;;1.8;1.6;;;;;;;7.52;94.02539;939.4302;;;;
2023/05/17 02:25:09;;;;;;;2.4;2;;;;;;;7.6;93.63672;939.4225;;;;
2023/05/17 02:27:38;;;;;;;1.7;1.4;;;;;;;7.61;93.43262;939.4025;;;;
2023/05/17 02:30:07;;;;;;;1.7;1.6;;;;;;;7.63;92.67676;939.4487;;;;
2023/05/17 02:32:31;;;;;;;1.9;1.8;;;;;;;7.6;93.03418;939.389;;;;
2023/05/17 02:34:59;;;;;;;1.7;1.6;;;;;;;7.63;92.87012;939.4124;;;;
2023/05/17 02:37:25;;;;;;;1.7;1.5;;;;;;;7.59;93.06641;939.3605;;;;
2023/05/17 02:39:55;;;;;;;2.5;1.5;;;;;;;7.53;91.125;939.3441;;;;
2023/05/17 02:42:21;;;;;;;2.7;1.7;;;;;;;7.34;92.72754;939.402;;;;
2023/05/17 02:44:55;;;;;;;1.9;1.5;;;;;;;7.4;94.2041;939.3624;;;;
2023/05/17 02:47:17;;;;;;;2.4;1.8;;;;;;;7.48;94.16309;939.358;;;;
2023/05/17 02:49:45;;;;;;;1.7;1.6;;;;;;;7.48;93.54102;939.3667;;;;
2023/05/17 02:52:10;;;;;;;1.5;1.4;;;;;;;7.51;93.80859;939.3159;;;;
2023/05/17 02:54:35;;;;;;;1.6;1.5;;;;;;;7.57;93.33203;939.4059;;;;
2023/05/17 02:57:02;;;;;;;1.5;1.4;;;;;;;7.6;93.25098;939.4202;;;;
2023/05/17 03:00:09;;;;;;;1.5;1.4;;;;;;;7.52;93.24316;939.3318;;;;
2023/05/17 03:02:21;;;;;;;2.9;1.5;;;;;;;7.46;93.00293;939.4249;;;;
2023/05/17 03:04:48;;;;;;;1.6;1.5;;;;;;;7.46;93.33105;939.4105;;;;
2023/05/17 03:07:13;;;;;;;1.7;1.6;;;;;;;7.49;93.40723;939.5151;;;;
2023/05/17 03:09:40;;;;;;;2.2;1.4;;;;;;;7.37;93.97168;939.5613;;;;
2023/05/17 03:12:05;;;;;;;1.5;1.4;;;;;;;7.45;94.23828;939.5672;;;;
2023/05/17 03:14:33;;;;;;;1.9;1.5;;;;;;;7.21;95.64648;939.6065;;;;
2023/05/17 03:16:58;;;;;;;1.5;1.4;;;;;;;7.22;94.59473;939.647;;;;
2023/05/17 03:19:25;;;;;;;2.3;1.6;;;;;;;7.21;95.08008;939.6325;;;;
2023/05/17 03:21:50;;;;;;;1.9;1.5;;;;;;;7.16;95.03613;939.658;;;;
2023/05/17 03:24:18;;;;;;;1.7;1.6;;;;;;;7.23;94.8125;939.6901;;;;
2023/05/17 03:26:43;;;;;;;1.7;1.6;;;;;;;7.25;94.25098;939.6875;;;;
2023/05/17 03:29:08;;;;;;;1.7;1.6;;;;;;;7.25;95.18945;939.674;;;;
2023/05/17 03:31:33;;;;;;;1.6;1.5;;;;;;;7.27;95.72656;939.725;;;;
2023/05/17 03:34:01;;;;;;;1.8;1.4;;;;;;;7.41;95.39355;939.6863;;;;
2023/05/17 03:36:26;;;;;;;1.8;1.6;;;;;;;7.47;95.29688;939.7657;;;;
2023/05/17 03:38:54;;;;;;;1.6;1.5;;;;;;;7.32;94.19922;939.7335;;;;
2023/05/17 03:46:18;;;;;;;1.8;1.7;;;;;;;7.25;95.56348;939.8322;;;;
2023/05/17 03:48:46;;;;;;;1.5;1.4;;;;;;;7.31;95.35156;939.8663;;;;
2023/05/17 03:51:11;;;;;;;2.8;1.8;;;;;;;7.36;95.24805;939.88;;;;
2023/05/17 03:53:41;;;;;;;2.1;1.7;;;;;;;7.27;95.89844;939.7886;;;;
2023/05/17 03:56:02;;;;;;;1.5;1.4;;;;;;;7.25;95.95996;939.9028;;;;
2023/05/17 03:58:28;;;;;;;1.6;1.5;;;;;;;7.16;96.93945;939.913;;;;
2023/05/17 04:05:18;;;;;;;3.7;3;;;;;;;7.25;95.39551;940.0043;;;;
2023/05/17 04:07:48;;;;;;;15.1;7.8;;;;;;;7.25;95.58691;939.9764;;;;
2023/05/17 04:10:23;;;;;;;8.7;5.1;;;;;;;7.28;95.1416;940.0659;;;;
2023/05/17 04:12:51;;;;;;;3.8;2.9;;;;;;;7.2;93.6709;940.0343;;;;
2023/05/17 04:15:16;;;;;;;4.8;3;;;;;;;7.29;94.6123;940.048;;;;
2023/05/17 04:17:49;;;;;;;3.8;2.9;;;;;;;7.33;95.35547;940.0948;;;;
2023/05/17 04:20:17;;;;;;;2.6;2;;;;;;;7.46;94.97559;940.0563;;;;
2023/05/17 04:22:43;;;;;;;2;1.9;;;;;;;7.53;95.26367;940.1053;;;;
2023/05/17 04:25:15;;;;;;;2;1.9;;;;;;;7.57;95.32031;940.139;;;;
2023/05/17 04:27:40;;;;;;;2.2;2;;;;;;;7.6;94.43066;940.1873;;;;
2023/05/17 04:30:05;;;;;;;15.7;11.9;;;;;;;7.57;93.57031;940.1475;;;;
2023/05/17 04:32:32;;;;;;;10.8;8.3;;;;;;;7.56;93.34375;940.1562;;;;
2023/05/17 04:34:56;;;;;;;6.8;5;;;;;;;7.67;92.95898;940.1454;;;;
2023/05/17 04:37:26;;;;;;;5;4.4;;;;;;;7.7;93.67969;940.1295;;;;
2023/05/17 04:39:52;;;;;;;6.2;4.1;;;;;;;7.62;94.31055;940.2173;;;;
2023/05/17 04:42:19;;;;;;;3.9;2.9;;;;;;;7.59;93.62402;940.252;;;;
2023/05/17 04:44:44;;;;;;;3.3;2.7;;;;;;;7.62;93.49121;940.2561;;;;
2023/05/17 04:47:09;;;;;;;3.6;2.8;;;;;;;7.66;93.9668;940.3006;;;;
2023/05/17 04:49:34;;;;;;;2.5;2.1;;;;;;;7.62;93.85645;940.2855;;;;
2023/05/17 04:52:02;;;;;;;2.2;1.9;;;;;;;7.49;93.02148;940.3049;;;;
2023/05/17 04:54:27;;;;;;;1.6;1.5;;;;;;;7.47;93.65332;940.2816;;;;
2023/05/17 04:56:54;;;;;;;1.8;1.6;;;;;;;7.54;93.95215;940.2816;;;;
2023/05/17 04:59:20;;;;;;;1.8;1.7;;;;;;;7.57;93.29883;940.3267;;;;
2023/05/17 05:01:45;;;;;;;2;1.7;;;;;;;7.64;93.18945;940.365;;;;
2023/05/17 05:04:10;;;;;;;2.1;1.9;;;;;;;7.63;92.91504;940.3491;;;;
2023/05/17 05:06:36;;;;;;;2.1;1.9;;;;;;;7.63;91.74707;940.33;;;;
2023/05/17 05:09:37;;;;;;;1.9;1.7;;;;;;;7.68;92.21191;940.3834;;;;
2023/05/17 05:12:04;;;;;;;1.7;1.6;;;;;;;7.7;91.82129;940.4047;;;;
2023/05/17 05:14:29;;;;;;;1.7;1.6;;;;;;;7.74;92.09961;940.4135;;;;
2023/05/17 05:16:56;;;;;;;2;1.8;;;;;;;7.73;93.0293;940.3625;;;;
2023/05/17 05:19:21;;;;;;;1.9;1.8;;;;;;;7.87;92.70508;940.4246;;;;
2023/05/17 05:21:50;;;;;;;2.5;1.9;;;;;;;7.91;92.12695;940.4233;;;;
2023/05/17 05:24:14;;;;;;;2.1;1.7;;;;;;;7.94;91.74414;940.4579;;;;
2023/05/17 05:26:40;;;;;;;2.3;2.1;;;;;;;7.83;93.33496;940.4578;;;;
2023/05/17 05:29:06;;;;;;;2.5;1.8;;;;;;;7.89;93.32324;940.4775;;;;
2023/05/17 05:31:31;;;;;;;2.2;2;;;;;;;7.93;92.90234;940.5036;;;;
2023/05/17 05:33:57;;;;;;;3.5;2.6;;;;;;;7.86;93.77148;940.5204;;;;
2023/05/17 05:36:22;;;;;;;3.1;2.3;;;;;;;7.73;94.07324;940.502;;;;
2023/05/17 05:38:52;;;;;;;3;2.3;;;;;;;7.79;92.97266;940.5176;;;;
2023/05/17 05:41:15;;;;;;;2.8;2.2;;;;;;;7.83;92.94727;940.5711;;;;
2023/05/17 05:43:41;;;;;;;3.9;2.3;;;;;;;7.92;93.05664;940.5145;;;;
2023/05/17 05:46:06;;;;;;;2.3;2;;;;;;;7.93;93.76465;940.567;;;;
2023/05/17 05:48:33;;;;;;;2.7;2.1;;;;;;;7.95;94.30176;940.5201;;;;
2023/05/17 05:50:58;;;;;;;2.3;2.1;;;;;;;7.96;93.32813;940.5464;;;;
2023/05/17 05:53:27;;;;;;;2.3;2.1;;;;;;;8.01;91.69336;940.5295;;;;
2023/05/17 05:55:57;;;;;;;1.9;1.8;;;;;;;8;92.35059;940.5481;;;;
2023/05/17 05:58:22;;;;;;;2.4;1.7;;;;;;;7.99;92.8457;940.5892;;;;
2023/05/17 06:00:59;;;;;;;2.4;2.2;;;;;;;8.08;92.08203;940.5747;;;;
2023/05/17 06:03:29;;;;;;;2.1;1.9;;;;;;;8.06;91.2041;940.588;;;;
2023/05/17 06:06:00;;;;;;;2.3;2.1;;;;;;;8.01;91.19434;940.6548;;;;
2023/05/17 06:08:27;;;;;;;2.4;2.2;;;;;;;7.77;93.00293;940.6384;;;;
2023/05/17 06:10:52;;;;;;;2.5;2.3;;;;;;;7.84;93.0752;940.6817;;;;
2023/05/17 06:13:17;;;;;;;2.3;2.1;;;;;;;7.93;92.85645;940.7034;;;;
2023/05/17 06:15:45;;;;;;;2.4;2.2;;;;;;;8.05;92.38281;940.6359;;;;
2023/05/17 06:18:10;;;;;;;2.2;2;;;;;;;7.96;92.79492;940.6694;;;;
2023/05/17 06:20:37;;;;;;;1.7;1.6;;;;;;;7.9;92.7373;940.7068;;;;
2023/05/17 06:23:03;;;;;;;2.2;2;;;;;;;7.83;94.0498;940.748;;;;
2023/05/17 06:25:27;;;;;;;2.2;2;;;;;;;7.97;93.50977;940.7511;;;;
2023/05/17 06:27:52;;;;;;;2;1.9;;;;;;;8.12;92.47754;940.7328;;;;
2023/05/17 06:30:18;;;;;;;2.1;2;;;;;;;8.06;91.51074;940.8098;;;;
2023/05/17 06:32:43;;;;;;;2.2;2;;;;;;;7.98;91.2793;940.7413;;;;
2023/05/17 06:35:15;;;;;;;2.8;2;;;;;;;7.91;91.79785;940.7721;;;;
2023/05/17 06:37:44;;;;;;;2.4;2.2;;;;;;;7.98;91.84473;940.7935;;;;
2023/05/17 06:40:15;;;;;;;2.6;2.4;;;;;;;8.12;92.33984;940.8064;;;;
2023/05/17 06:42:45;;;;;;;3.2;2.4;;;;;;;8.11;91.97656;940.8158;;;;
2023/05/17 06:45:10;;;;;;;2.4;2.2;;;;;;;8.08;91.3916;940.793;;;;
2023/05/17 06:47:39;;;;;;;3.3;2.3;;;;;;;8.18;90.97852;940.8283;;;;
2023/05/17 06:50:04;;;;;;;2.6;2.4;;;;;;;8.34;90.53613;940.8;;;;
2023/05/17 06:52:29;;;;;;;2.3;2.1;;;;;;;8.4;89.76367;940.8013;;;;
2023/05/17 06:54:58;;;;;;;3.2;2.1;;;;;;;8.35;89.77734;940.8399;;;;
2023/05/17 06:57:24;;;;;;;2.4;2.1;;;;;;;8.33;89.36621;940.8908;;;;
2023/05/17 06:59:49;;;;;;;2.4;2.2;;;;;;;8.22;90.30762;940.8851;;;;
2023/05/17 07:02:16;;;;;;;2.3;2.1;;;;;;;8.26;90.90723;940.9369;;;;
2023/05/17 07:04:41;;;;;;;2.7;2.2;;;;;;;8.4;90.76563;940.9584;;;;
2023/05/17 07:07:10;;;;;;;2.5;2;;;;;;;8.48;89.90723;940.9398;;;;
2023/05/17 07:09:34;;;;;;;3.1;2.3;;;;;;;8.59;89.83887;940.9564;;;;
2023/05/17 07:12:00;;;;;;;2.3;2.1;;;;;;;8.66;89.7959;940.9955;;;;
2023/05/17 07:14:25;;;;;;;2.8;2.3;;;;;;;8.58;88.93945;940.9269;;;;
2023/05/17 07:16:52;;;;;;;2.5;2.3;;;;;;;8.51;90.21094;941.0389;;;;
2023/05/17 07:19:17;;;;;;;2.3;2.1;;;;;;;8.68;88.99414;941.0675;;;;
2023/05/17 07:21:44;;;;;;;3.1;2.2;;;;;;;8.77;88.64844;941.0939;;;;
2023/05/17 07:24:09;;;;;;;3.2;2.4;;;;;;;8.59;89.50977;941.0891;;;;
2023/05/17 07:26:35;;;;;;;2.8;2.3;;;;;;;8.55;89.9209;941.1612;;;;
2023/05/17 07:29:01;;;;;;;2.5;2.3;;;;;;;8.61;89.60449;941.1433;;;;
2023/05/17 07:31:28;;;;;;;2.5;2.3;;;;;;;8.54;89.30566;941.1633;;;;
2023/05/17 07:33:53;;;;;;;2.8;2.6;;;;;;;8.24;91.10547;941.2141;;;;
2023/05/17 07:36:19;;;;;;;2.7;2.5;;;;;;;8.28;91.31836;941.2419;;;;
2023/05/17 07:38:44;;;;;;;3.8;2.4;;;;;;;8.19;92.41211;941.1793;;;;
2023/05/17 07:41:15;;;;;;;2.3;2.1;;;;;;;8.37;91.96387;941.2189;;;;
2023/05/17 07:43:36;;;;;;;2.8;2.4;;;;;;;8.45;92.02441;941.2082;;;;
2023/05/17 07:46:05;;;;;;;3.3;2.5;;;;;;;8.54;91.18262;941.0904;;;;
2023/05/17 07:48:30;;;;;;;3.8;2.5;;;;;;;8.53;90.76953;941.1401;;;;
2023/05/17 07:50:57;;;;;;;2.4;2.2;;;;;;;8.12;90.34082;941.1895;;;;
2023/05/17 07:53:22;;;;;;;4.1;2.7;;;;;;;8.13;90.36621;941.1619;;;;
2023/05/17 07:55:49;;;;;;;3;2.8;;;;;;;8.13;90.36719;941.2311;;;;
2023/05/17 07:58:14;;;;;;;3.2;2.9;;;;;;;8.18;91.18359;941.2297;;;;
2023/05/17 08:00:42;;;;;;;2.8;2.6;;;;;;;8.28;90.47949;941.2292;;;;
2023/05/17 08:03:07;;;;;;;3;2.7;;;;;;;8.35;89.64063;941.2556;;;;
2023/05/17 08:05:35;;;;;;;3.9;3.1;;;;;;;8.14;90.52832;941.267;;;;
2023/05/17 08:08:01;;;;;;;4.2;2.8;;;;;;;8.21;90.50977;941.2744;;;;
2023/05/17 08:10:25;;;;;;;4.9;3;;;;;;;8.06;90.52246;941.2731;;;;
2023/05/17 08:12:50;;;;;;;4.2;2.7;;;;;;;8.21;90.1123;941.2809;;;;
2023/05/17 08:15:19;;;;;;;3.6;2.8;;;;;;;7.99;90.50781;941.3764;;;;
2023/05/17 08:17:44;;;;;;;4;3.2;;;;;;;8.02;91.05762;941.2966;;;;
2023/05/17 08:20:16;;;;;;;4.7;2.8;;;;;;;8.05;91.98535;941.3909;;;;
2023/05/17 08:22:44;;;;;;;3.9;2.9;;;;;;;8.01;91.51172;941.4186;;;;
2023/05/17 08:25:09;;;;;;;3;2.7;;;;;;;8.28;90.69336;941.4171;;;;
2023/05/17 08:27:38;;;;;;;3;2.7;;;;;;;8.29;89.45703;941.384;;;;
2023/05/17 08:30:06;;;;;;;3.5;2.6;;;;;;;8.47;89.82422;941.4372;;;;
2023/05/17 08:32:31;;;;;;;4.2;2.5;;;;;;;8.6;88.53418;941.528;;;;
2023/05/17 08:34:58;;;;;;;2.5;2.3;;;;;;;8.67;88.81055;941.5832;;;;
2023/05/17 08:37:23;;;;;;;3.4;2.4;;;;;;;8.72;87.53711;941.5906;;;;
2023/05/17 08:39:50;;;;;;;3.7;2.8;;;;;;;8.72;86.94531;941.6074;;;;
2023/05/17 08:42:15;;;;;;;3.3;2.6;;;;;;;8.73;86.12695;941.6542;;;;
2023/05/17 08:44:40;;;;;;;3;2.7;;;;;;;8.59;86.38379;941.5556;;;;
2023/05/17 08:47:08;;;;;;;4.7;2.8;;;;;;;8.51;86.86914;941.6215;;;;
2023/05/17 08:49:33;;;;;;;3.7;2.8;;;;;;;8.39;87.75293;941.6572;;;;
2023/05/17 08:52:00;;;;;;;4.4;3;;;;;;;8.35;88.56348;941.639;;;;
2023/05/17 08:54:25;;;;;;;10;5.3;;;;;;;8.33;88.25293;941.7319;;;;
2023/05/17 08:56:53;;;;;;;7.2;4.3;;;;;;;8.46;88.51758;941.7505;;;;
2023/05/17 08:59:18;;;;;;;5.7;3.3;;;;;;;8.43;87.83984;941.7783;;;;
2023/05/17 09:01:45;;;;;;;5;3.3;;;;;;;8.44;89.12695;941.8111;;;;
2023/05/17 09:04:11;;;;;;;4.8;3.2;;;;;;;8.35;88.50488;941.8627;;;;
2023/05/17 09:09:02;;;;;;;3.7;2.9;;;;;;;8.39;88.12793;941.8795;;;;
2023/05/17 09:11:31;;;;;;;6.4;3.2;;;;;;;8.47;88.04004;941.8839;;;;
2023/05/17 09:14:01;;;;;;;4.6;3.2;;;;;;;8.29;88.32324;942.0061;;;;
2023/05/17 09:16:29;;;;;;;4.2;3;;;;;;;8.43;88.45313;942.0235;;;;
2023/05/17 09:18:54;;;;;;;8.1;6.3;;;;;;;8.15;89.33789;942.0136;;;;
2023/05/17 09:21:21;;;;;;;4.1;3.7;;;;;;;8.26;88.6582;942.0935;;;;
2023/05/17 09:23:46;;;;;;;3.7;3.2;;;;;;;8.31;89.72559;942.0662;;;;
2023/05/17 09:26:14;;;;;;;4.7;3.4;;;;;;;8.3;89.08398;942.0728;;;;
2023/05/17 09:28:39;;;;;;;4.1;3.5;;;;;;;8.2;89.33789;942.1021;;;;
2023/05/17 09:31:04;;;;;;;5.2;3.6;;;;;;;8.27;88.51074;942.123;;;;
2023/05/17 09:33:29;;;;;;;3.6;3.3;;;;;;;8.32;89.25977;942.1426;;;;
2023/05/17 09:35:56;;;;;;;3.8;3.3;;;;;;;8.45;89.10449;942.1397;;;;
2023/05/17 09:38:24;;;;;;;4;3.4;;;;;;;8.47;88.8125;942.1601;;;;
2023/05/17 09:40:49;;;;;;;4.1;3.3;;;;;;;8.54;88.4873;942.2189;;;;
2023/05/17 09:43:35;;;;;;;5.6;3.2;;;;;;;8.68;87.73047;942.2176;;;;
2023/05/17 09:46:00;;;;;;;4.5;3.2;;;;;;;8.81;87.14355;942.19;;;;
2023/05/17 09:48:28;;;;;;;3.3;3;;;;;;;8.82;87.34082;942.183;;;;
2023/05/17 09:53:51;;;;;;;3.4;3;;;;;;;8.72;87.6709;942.2503;;;;
2023/05/17 09:56:18;;;;;;;3.4;3;;;;;;;8.81;87.89258;942.2467;;;;
2023/05/17 09:58:42;;;;;;;4.2;2.7;;;;;;;8.77;86.7041;942.2911;;;;
2023/05/17 10:01:10;;;;;;;4.7;3.1;;;;;;;8.65;88.50879;942.2447;;;;
2023/05/17 10:03:34;;;;;;;3.3;2.9;;;;;;;8.61;87.5127;942.2717;;;;
2023/05/17 10:06:01;;;;;;;3.5;3.2;;;;;;;8.63;87.37012;942.2793;;;;
2023/05/17 10:08:27;;;;;;;5.3;3.1;;;;;;;8.57;86.4375;942.23;;;;
2023/05/17 10:10:51;;;;;;;4.9;3.4;;;;;;;8.42;87.28125;942.2167;;;;
2023/05/17 10:13:18;;;;;;;4.3;3.3;;;;;;;8.49;88.72559;942.2597;;;;
2023/05/17 10:15:43;;;;;;;3.9;3.1;;;;;;;8.6;88.05664;942.2894;;;;
2023/05/17 10:18:09;;;;;;;5.6;2.7;;;;;;;8.52;87.8125;942.309;;;;
2023/05/17 10:20:35;;;;;;;4.8;3.5;;;;;;;8.63;87.41602;942.2809;;;;
2023/05/17 10:23:04;;;;;;;5.6;3.3;;;;;;;8.76;87.00977;942.2043;;;;
2023/05/17 10:25:27;;;;;;;2.9;2.7;;;;;;;8.94;88.22754;942.2515;;;;
2023/05/17 10:27:58;;;;;;;3.6;3.2;;;;;;;8.75;87.43848;942.1772;;;;
2023/05/17 10:30:25;;;;;;;3.9;3.5;;;;;;;8.56;89.02441;942.2598;;;;
2023/05/17 10:32:52;;;;;;;3.6;3.3;;;;;;;8.74;89.75586;942.2539;;;;
2023/05/17 10:35:20;;;;;;;4;3.5;;;;;;;8.95;89.08398;942.2548;;;;
2023/05/17 10:37:45;;;;;;;4.2;3.8;;;;;;;9.07;86.75488;942.2698;;;;
2023/05/17 10:40:19;;;;;;;4.5;3.6;;;;;;;9.18;85.95508;942.2465;;;;
2023/05/17 10:42:45;;;;;;;4.3;3.9;;;;;;;9.4;86.87695;942.1625;;;;
2023/05/17 10:45:10;;;;;;;4.4;3.4;;;;;;;9.53;86.19629;942.1437;;;;
2023/05/17 10:47:35;;;;;;;6;3.4;;;;;;;9.69;84.10938;942.1273;;;;
2023/05/17 10:50:02;;;;;;;4.8;3.5;;;;;;;9.28;84.71289;942.0662;;;;
2023/05/17 10:52:26;;;;;;;4;3.2;;;;;;;9.39;84.82422;942.1534;;;;
2023/05/17 10:54:54;;;;;;;3.2;2.9;;;;;;;9.46;82.37793;942.1559;;;;
2023/05/17 10:57:19;;;;;;;4.8;3.4;;;;;;;9.28;84.32422;942.1122;;;;
2023/05/17 10:59:44;;;;;;;3.9;3.3;;;;;;;9.2;84.57031;942.1381;;;;
2023/05/17 11:02:10;;;;;;;3.9;3.2;;;;;;;9.13;84.1709;942.1685;;;;
2023/05/17 11:04:35;;;;;;;3.7;3;;;;;;;9.33;84.35742;942.0751;;;;
2023/05/17 11:07:00;;;;;;;3.9;3;;;;;;;9.59;84.38574;942.1394;;;;
2023/05/17 11:09:25;;;;;;;5.7;3.5;;;;;;;9.72;83.72754;942.1755;;;;
2023/05/17 11:11:50;;;;;;;4.9;3.2;;;;;;;;;;;;;
2023/05/17 11:14:15;;;;;;;4.2;3.4;;;;;;;;;;;;;
2023/05/17 11:16:41;;;;;;;4;3.3;;;;;;;;;;;;;
2023/05/17 11:19:07;;;;;;;4.6;2.9;;;;;;;;;;;;;
2023/05/17 11:21:32;;;;;;;4.9;3.3;;;;;;;;;;;;;
2023/05/17 11:23:58;;;;;;;4.4;3.3;;;;;;;;;;;;;
2023/05/17 11:26:23;;;;;;;5.1;3.7;;;;;;;;;;;;;
2023/05/17 11:28:48;;;;;;;6.5;3.9;;;;;;;;;;;;;
2023/05/17 11:31:14;;;;;;;6.2;3.9;;;;;;;;;;;;;
2023/05/17 11:33:40;;;;;;;3.7;3;;;;;;;;;;;;;
2023/05/17 11:36:07;;;;;;;7.8;5.4;;;;;;;;;;;;;
2023/05/17 11:38:33;;;;;;;18.2;10.9;;;;;;;;;;;;;
2023/05/17 11:41:00;;;;;;;26;16;;;;;;;;;;;;;
2023/05/17 11:43:24;;;;;;;11.2;6.9;;;;;;;;;;;;;
2023/05/17 11:45:49;;;;;;;9.4;6.4;;;;;;;;;;;;;
2023/05/17 11:48:13;;;;;;;6.2;4.6;;;;;;;;;;;;;
2023/05/17 11:50:39;;;;;;;4.9;3.8;;;;;;;;;;;;;
2023/05/17 11:53:05;;;;;;;3.8;3.4;;;;;;;;;;;;;
2023/05/17 11:55:31;;;;;;;3.7;3;;;;;;;;;;;;;
2023/05/17 11:57:56;;;;;;;4.2;3.5;;;;;;;;;;;;;
2023/05/17 12:00:21;;;;;;;4.4;3.5;;;;;;;;;;;;;
2023/05/17 12:02:47;;;;;;;4.8;3.4;;;;;;;;;;;;;
2023/05/17 12:05:14;;;;;;;5.6;4.3;;;;;;;;;;;;;
2023/05/17 12:07:39;;;;;;;3.9;3;;;;;;;;;;;;;
2023/05/17 12:10:04;;;;;;;4.2;3.1;;;;;;;;;;;;;
2023/05/17 12:12:29;;;;;;;4.8;3.5;;;;;;;;;;;;;
2023/05/17 12:14:57;;;;;;;7.1;4.5;;;;;;;;;;;;;
2023/05/17 12:17:20;;;;;;;3.5;2.8;;;;;;;;;;;;;
2023/05/17 12:19:46;;;;;;;3.8;3.1;;;;;;;;;;;;;
2023/05/17 12:22:11;;;;;;;3.3;3;;;;;;;;;;;;;
2023/05/17 12:24:36;;;;;;;4.3;3;;;;;;;;;;;;;
2023/05/17 12:27:01;;;;;;;4.8;3.4;;;;;;;;;;;;;
2023/05/17 12:29:26;;;;;;;4;3.2;;;;;;;;;;;;;
2023/05/17 12:31:51;;;;;;;4.5;3;;;;;;;;;;;;;
2023/05/17 12:34:17;;;;;;;9.3;3.7;;;;;;;;;;;;;
2023/05/17 12:36:43;;;;;;;4.2;3;;;;;;;;;;;;;
2023/05/17 12:39:08;;;;;;;5;3.2;;;;;;;;;;;;;
2023/05/17 12:41:33;;;;;;;4.6;3;;;;;;;;;;;;;
2023/05/17 12:43:58;;;;;;;5.4;3.3;;;;;;;;;;;;;
2023/05/17 12:46:24;;;;;;;4.6;3;;;;;;;;;;;;;
2023/05/17 12:48:49;;;;;;;2.9;2.6;;;;;;;;;;;;;
2023/05/17 12:51:14;;;;;;;14.7;7.2;;;;;;;;;;;;;
2023/05/17 12:53:41;;;;;;;5.1;3.5;;;;;;;;;;;;;
2023/05/17 12:56:06;;;;;;;3.2;2.9;;;;;;;;;;;;;
2023/05/17 12:58:31;;;;;;;4;2.6;;;;;;;;;;;;;
2023/05/17 13:00:57;;;;;;;4.2;3;;;;;;;;;;;;;
2023/05/17 13:03:22;;;;;;;4.4;2.9;;;;;;;;;;;;;
2023/05/17 13:05:47;;;;;;;3.2;2.9;;;;;;;;;;;;;
2023/05/17 13:08:12;;;;;;;3.1;2.8;;;;;;;;;;;;;
2023/05/17 13:10:37;;;;;;;4.9;2.8;;;;;;;;;;;;;
2023/05/17 13:13:04;;;;;;;3.1;2.8;;;;;;;;;;;;;
2023/05/17 13:15:27;;;;;;;3.9;2.9;;;;;;;;;;;;;
2023/05/17 13:17:54;;;;;;;4;2.8;;;;;;;;;;;;;
2023/05/17 13:20:19;;;;;;;3.4;2.8;;;;;;;;;;;;;
2023/05/17 13:22:48;;;;;;;3.6;2.6;;;;;;;;;;;;;
2023/05/17 13:25:12;;;;;;;4.2;2.7;;;;;;;;;;;;;
2023/05/17 13:27:38;;;;;;;3.7;2.9;;;;;;;;;;;;;
2023/05/17 13:30:03;;;;;;;3.8;2.6;;;;;;;;;;;;;
2023/05/17 13:32:30;;;;;;;5.3;2.9;;;;;;;;;;;;;
2023/05/17 13:34:55;;;;;;;2.9;2.6;;;;;;;;;;;;;
2023/05/17 13:37:21;;;;;;;4.1;2.4;;;;;;;;;;;;;
2023/05/17 13:39:46;;;;;;;2.9;2.3;;;;;;;;;;;;;
2023/05/17 13:42:12;;;;;;;2.5;2.3;;;;;;;;;;;;;
2023/05/17 13:44:37;;;;;;;3.1;2.2;;;;;;;;;;;;;
2023/05/17 13:47:02;;;;;;;3;2.2;;;;;;;;;;;;;
2023/05/17 13:49:27;;;;;;;3.4;2.1;;;;;;;;;;;;;
2023/05/17 13:51:55;;;;;;;3;2.4;;;;;;;;;;;;;
2023/05/17 13:54:20;;;;;;;3.4;2.3;;;;;;;;;;;;;
2023/05/17 13:56:46;;;;;;;2.8;2.3;;;;;;;;;;;;;
2023/05/17 13:59:11;;;;;;;4.9;2.8;;;;;;;;;;;;;
2023/05/17 14:01:38;;;;;;;3;2.7;;;;;;;;;;;;;
2023/05/17 14:04:03;;;;;;;3.1;2.4;;;;;;;;;;;;;
2023/05/17 14:06:29;;;;;;;2.7;2.3;;;;;;;;;;;;;
2023/05/17 14:08:55;;;;;;;3.9;2.3;;;;;;;;;;;;;
2023/05/17 14:11:20;;;;;;;2.6;2.2;;;;;;;;;;;;;
2023/05/17 14:13:45;;;;;;;3.9;2.6;;;;;;;;;;;;;
2023/05/17 14:16:11;;;;;;;3.3;2.6;;;;;;;;;;;;;
2023/05/17 14:18:36;;;;;;;3.7;2.2;;;;;;;;;;;;;
2023/05/17 14:21:03;;;;;;;4.2;2.2;;;;;;;;;;;;;
2023/05/17 14:23:28;;;;;;;2.7;2.4;;;;;;;;;;;;;
2023/05/17 14:25:56;;;;;;;3.3;2.1;;;;;;;;;;;;;
2023/05/17 14:28:19;;;;;;;2.1;1.9;;;;;;;;;;;;;
2023/05/17 14:30:46;;;;;;;2.9;2.1;;;;;;;;;;;;;
2023/05/17 14:33:11;;;;;;;2.5;2;;;;;;;;;;;;;
2023/05/17 14:35:36;;;;;;;3.7;2.2;;;;;;;;;;;;;
2023/05/17 14:38:01;;;;;;;2.6;1.8;;;;;;;;;;;;;
2023/05/17 14:40:29;;;;;;;3.4;2.3;;;;;;;;;;;;;
2023/05/17 14:42:54;;;;;;;3.8;2.3;;;;;;;;;;;;;
2023/05/17 14:45:19;;;;;;;1.9;1.6;;;;;;;;;;;;;
2023/05/17 14:47:44;;;;;;;5.1;1.8;;;;;;;;;;;;;
2023/05/17 14:50:10;;;;;;;3.1;1.8;;;;;;;;;;;;;
2023/05/17 14:52:35;;;;;;;2.1;1.9;;;;;;;;;;;;;
2023/05/17 14:55:01;;;;;;;2.4;1.9;;;;;;;;;;;;;
2023/05/17 14:57:26;;;;;;;4.9;2.4;;;;;;;;;;;;;
2023/05/17 14:59:52;;;;;;;3.9;2.3;;;;;;;;;;;;;
2023/05/17 15:02:17;;;;;;;2.9;2.2;;;;;;;;;;;;;
2023/05/17 15:04:43;;;;;;;3.9;2;;;;;;;;;;;;;
2023/05/17 15:07:08;;;;;;;2.6;1.8;;;;;;;;;;;;;
2023/05/17 15:09:36;;;;;;;3.7;1.8;;;;;;;;;;;;;
2023/05/17 15:12:01;;;;;;;3.3;1.9;;;;;;;;;;;;;
2023/05/17 15:14:28;;;;;;;3.5;2.6;;;;;;;;;;;;;
2023/05/17 15:16:53;;;;;;;3.5;2.3;;;;;;;;;;;;;
2023/05/17 15:19:18;;;;;;;2.5;1.5;;;;;;;;;;;;;
2023/05/17 15:21:43;;;;;;;2.8;2;;;;;;;;;;;;;
2023/05/17 15:24:08;;;;;;;3.5;2;;;;;;;;;;;;;
2023/05/17 15:26:34;;;;;;;3.1;2.6;;;;;;;;;;;;;
2023/05/17 15:29:00;;;;;;;4.4;2.6;;;;;;;;;;;;;
2023/05/17 15:31:27;;;;;;;3.1;2.4;;;;;;;;;;;;;
2023/05/17 15:33:53;;;;;;;3.8;2.6;;;;;;;;;;;;;
2023/05/17 15:36:18;;;;;;;4.1;2.8;;;;;;;;;;;;;
2023/05/17 15:38:44;;;;;;;3.9;2.5;;;;;;;;;;;;;
2023/05/17 15:41:09;;;;;;;4.5;2.5;;;;;;;;;;;;;
2023/05/17 15:43:34;;;;;;;6.5;3.5;;;;;;;;;;;;;
2023/05/17 15:45:59;;;;;;;4.6;2.9;;;;;;;;;;;;;
2023/05/17 15:48:27;;;;;;;5.2;3.4;;;;;;;;;;;;;
2023/05/17 15:50:50;;;;;;;4.5;2.8;;;;;;;;;;;;;
2023/05/17 15:53:16;;;;;;;3.3;2.7;;;;;;;;;;;;;
2023/05/17 15:55:41;;;;;;;3.5;2.1;;;;;;;;;;;;;
2023/05/17 15:58:09;;;;;;;4;2.6;;;;;;;;;;;;;
2023/05/17 16:00:35;;;;;;;2.6;2.2;;;;;;;;;;;;;
2023/05/17 16:03:01;;;;;;;3.4;1.9;;;;;;;;;;;;;
2023/05/17 16:05:26;;;;;;;2.2;2;;;;;;;;;;;;;
2023/05/17 16:07:52;;;;;;;3.1;2.3;;;;;;;;;;;;;
2023/05/17 16:10:17;;;;;;;2.5;2.1;;;;;;;;;;;;;
2023/05/17 16:12:43;;;;;;;3.4;2.1;;;;;;;;;;;;;
2023/05/17 16:15:09;;;;;;;4.1;2.2;;;;;;;;;;;;;
2023/05/17 16:17:34;;;;;;;4.2;2.4;;;;;;;;;;;;;
2023/05/17 16:19:59;;;;;;;3.4;2.3;;;;;;;;;;;;;
2023/05/17 16:22:27;;;;;;;5.1;2.8;;;;;;;;;;;;;
2023/05/17 16:24:52;;;;;;;3.8;2.7;;;;;;;;;;;;;
2023/05/17 16:27:17;;;;;;;6.9;2.9;;;;;;;;;;;;;
2023/05/17 16:29:42;;;;;;;3.7;2.6;;;;;;;;;;;;;
2023/05/17 16:32:08;;;;;;;2.6;2.1;;;;;;;;;;;;;